sensor_id;sensor_type;location;lat;lon;timestamp;temperature;humidity
19847;DHT22;10084;50.518;8.588;2023-11-18T00:00:51;1.50;80.90
19847;DHT22;10084;50.518;8.588;2023-11-18T00:03:17;1.40;80.80
19847;DHT22;10084;50.518;8.588;2023-11-18T00:05:43;1.40;80.70
19847;DHT22;10084;50.518;8.588;2023-11-18T00:08:08;1.30;80.60
19847;DHT22;10084;50.518;8.588;2023-11-18T00:10:34;1.30;80.60
19847;DHT22;10084;50.518;8.588;2023-11-18T00:13:00;1.20;80.70
19847;DHT22;10084;50.518;8.588;2023-11-18T00:15:27;1.30;81.00
19847;DHT22;10084;50.518;8.588;2023-11-18T00:17:53;1.30;81.10
19847;DHT22;10084;50.518;8.588;2023-11-18T00:20:18;1.40;81.30
19847;DHT22;10084;50.518;8.588;2023-11-18T00:22:45;1.40;81.40
19847;DHT22;10084;50.518;8.588;2023-11-18T00:25:11;1.60;81.70
19847;DHT22;10084;50.518;8.588;2023-11-18T00:27:39;1.70;81.90
19847;DHT22;10084;50.518;8.588;2023-11-18T00:30:06;1.90;82.10
19847;DHT22;10084;50.518;8.588;2023-11-18T00:32:34;2.10;82.10
19847;DHT22;10084;50.518;8.588;2023-11-18T00:35:01;2.30;82.20
19847;DHT22;10084;50.518;8.588;2023-11-18T00:37:26;2.40;82.10
19847;DHT22;10084;50.518;8.588;2023-11-18T00:39:53;2.60;82.10
19847;DHT22;10084;50.518;8.588;2023-11-18T00:42:18;2.70;82.00
19847;DHT22;10084;50.518;8.588;2023-11-18T00:44:44;2.90;82.10
19847;DHT22;10084;50.518;8.588;2023-11-18T00:47:10;3.00;82.00
19847;DHT22;10084;50.518;8.588;2023-11-18T00:49:35;3.10;82.00
19847;DHT22;10084;50.518;8.588;2023-11-18T00:52:01;3.30;82.00
19847;DHT22;10084;50.518;8.588;2023-11-18T00:54:28;3.40;82.00
19847;DHT22;10084;50.518;8.588;2023-11-18T00:56:53;3.50;81.80
19847;DHT22;10084;50.518;8.588;2023-11-18T00:59:19;3.60;81.70
19847;DHT22;10084;50.518;8.588;2023-11-18T01:01:45;3.60;81.60
19847;DHT22;10084;50.518;8.588;2023-11-18T01:04:11;3.60;81.20
19847;DHT22;10084;50.518;8.588;2023-11-18T01:06:37;3.60;80.90
19847;DHT22;10084;50.518;8.588;2023-11-18T01:09:02;3.50;80.90
19847;DHT22;10084;50.518;8.588;2023-11-18T01:11:29;3.40;81.00
19847;DHT22;10084;50.518;8.588;2023-11-18T01:13:55;3.40;81.20
19847;DHT22;10084;50.518;8.588;2023-11-18T01:16:21;3.40;81.30
19847;DHT22;10084;50.518;8.588;2023-11-18T01:18:47;3.30;81.40
19847;DHT22;10084;50.518;8.588;2023-11-18T01:21:13;3.30;81.60
19847;DHT22;10084;50.518;8.588;2023-11-18T01:23:39;3.40;81.70
19847;DHT22;10084;50.518;8.588;2023-11-18T01:26:08;3.30;81.60
19847;DHT22;10084;50.518;8.588;2023-11-18T01:28:35;3.30;81.70
19847;DHT22;10084;50.518;8.588;2023-11-18T01:31:06;3.30;81.60
19847;DHT22;10084;50.518;8.588;2023-11-18T01:33:41;3.20;81.40
19847;DHT22;10084;50.518;8.588;2023-11-18T01:36:08;3.20;81.40
19847;DHT22;10084;50.518;8.588;2023-11-18T01:38:38;3.00;81.10
19847;DHT22;10084;50.518;8.588;2023-11-18T01:41:07;2.90;80.90
19847;DHT22;10084;50.518;8.588;2023-11-18T01:43:34;2.70;80.70
19847;DHT22;10084;50.518;8.588;2023-11-18T01:46:03;2.60;80.90
19847;DHT22;10084;50.518;8.588;2023-11-18T01:48:31;2.40;81.10
19847;DHT22;10084;50.518;8.588;2023-11-18T01:50:59;2.40;81.70
19847;DHT22;10084;50.518;8.588;2023-11-18T01:53:27;2.30;81.90
19847;DHT22;10084;50.518;8.588;2023-11-18T01:55:54;2.30;82.00
19847;DHT22;10084;50.518;8.588;2023-11-18T01:58:20;2.30;82.00
19847;DHT22;10084;50.518;8.588;2023-11-18T02:00:50;2.30;82.20
19847;DHT22;10084;50.518;8.588;2023-11-18T02:03:17;2.30;82.40
19847;DHT22;10084;50.518;8.588;2023-11-18T02:05:43;2.30;82.50
19847;DHT22;10084;50.518;8.588;2023-11-18T02:08:10;2.40;82.50
19847;DHT22;10084;50.518;8.588;2023-11-18T02:10:57;2.40;82.50
19847;DHT22;10084;50.518;8.588;2023-11-18T02:13:24;2.50;82.70
19847;DHT22;10084;50.518;8.588;2023-11-18T02:15:53;2.50;82.80
19847;DHT22;10084;50.518;8.588;2023-11-18T02:18:27;2.60;82.80
19847;DHT22;10084;50.518;8.588;2023-11-18T02:20:57;2.70;82.90
19847;DHT22;10084;50.518;8.588;2023-11-18T02:23:24;2.70;82.80
19847;DHT22;10084;50.518;8.588;2023-11-18T02:25:52;2.80;82.80
19847;DHT22;10084;50.518;8.588;2023-11-18T02:28:18;2.80;82.60
19847;DHT22;10084;50.518;8.588;2023-11-18T02:30:45;2.90;82.60
19847;DHT22;10084;50.518;8.588;2023-11-18T02:35:56;3.00;82.70
19847;DHT22;10084;50.518;8.588;2023-11-18T02:38:30;3.10;82.80
19847;DHT22;10084;50.518;8.588;2023-11-18T02:40:59;3.10;82.80
19847;DHT22;10084;50.518;8.588;2023-11-18T02:43:27;3.20;82.80
19847;DHT22;10084;50.518;8.588;2023-11-18T02:45:57;3.30;82.80
19847;DHT22;10084;50.518;8.588;2023-11-18T02:48:23;3.30;82.70
19847;DHT22;10084;50.518;8.588;2023-11-18T02:50:49;3.40;82.70
19847;DHT22;10084;50.518;8.588;2023-11-18T02:53:15;3.40;82.70
19847;DHT22;10084;50.518;8.588;2023-11-18T02:55:40;3.50;82.70
19847;DHT22;10084;50.518;8.588;2023-11-18T02:58:07;3.50;82.60
19847;DHT22;10084;50.518;8.588;2023-11-18T03:00:36;3.50;82.50
19847;DHT22;10084;50.518;8.588;2023-11-18T03:03:04;3.50;82.30
19847;DHT22;10084;50.518;8.588;2023-11-18T03:05:30;3.50;82.20
19847;DHT22;10084;50.518;8.588;2023-11-18T03:07:56;3.50;82.10
19847;DHT22;10084;50.518;8.588;2023-11-18T03:10:23;3.50;82.20
19847;DHT22;10084;50.518;8.588;2023-11-18T03:12:53;3.40;82.00
19847;DHT22;10084;50.518;8.588;2023-11-18T03:15:19;3.40;82.10
19847;DHT22;10084;50.518;8.588;2023-11-18T03:17:46;3.30;82.00
19847;DHT22;10084;50.518;8.588;2023-11-18T03:20:14;3.30;82.10
19847;DHT22;10084;50.518;8.588;2023-11-18T03:22:49;3.20;82.00
19847;DHT22;10084;50.518;8.588;2023-11-18T03:25:16;3.10;82.00
19847;DHT22;10084;50.518;8.588;2023-11-18T03:27:43;3.00;82.20
19847;DHT22;10084;50.518;8.588;2023-11-18T03:30:10;3.00;82.20
19847;DHT22;10084;50.518;8.588;2023-11-18T03:32:38;2.90;82.30
19847;DHT22;10084;50.518;8.588;2023-11-18T03:35:05;2.90;82.50
19847;DHT22;10084;50.518;8.588;2023-11-18T03:37:38;2.80;82.70
19847;DHT22;10084;50.518;8.588;2023-11-18T03:40:08;2.80;82.90
19847;DHT22;10084;50.518;8.588;2023-11-18T03:42:34;2.80;82.80
19847;DHT22;10084;50.518;8.588;2023-11-18T03:45:01;2.80;82.80
19847;DHT22;10084;50.518;8.588;2023-11-18T03:47:26;2.70;82.80
19847;DHT22;10084;50.518;8.588;2023-11-18T03:49:52;2.70;82.80
19847;DHT22;10084;50.518;8.588;2023-11-18T03:52:19;2.60;82.80
19847;DHT22;10084;50.518;8.588;2023-11-18T03:54:45;2.60;82.90
19847;DHT22;10084;50.518;8.588;2023-11-18T03:57:11;2.60;83.00
19847;DHT22;10084;50.518;8.588;2023-11-18T03:59:41;2.60;83.20
19847;DHT22;10084;50.518;8.588;2023-11-18T04:02:07;2.60;83.10
19847;DHT22;10084;50.518;8.588;2023-11-18T04:04:33;2.60;83.20
19847;DHT22;10084;50.518;8.588;2023-11-18T04:06:59;2.60;83.40
19847;DHT22;10084;50.518;8.588;2023-11-18T04:09:27;2.60;83.60
19847;DHT22;10084;50.518;8.588;2023-11-18T04:11:53;2.60;83.60
19847;DHT22;10084;50.518;8.588;2023-11-18T04:14:19;2.70;83.70
19847;DHT22;10084;50.518;8.588;2023-11-18T04:16:45;2.70;83.70
19847;DHT22;10084;50.518;8.588;2023-11-18T04:19:11;2.80;83.80
19847;DHT22;10084;50.518;8.588;2023-11-18T04:21:37;2.80;83.80
19847;DHT22;10084;50.518;8.588;2023-11-18T04:24:04;2.90;83.80
19847;DHT22;10084;50.518;8.588;2023-11-18T04:26:31;2.90;83.70
19847;DHT22;10084;50.518;8.588;2023-11-18T04:28:57;2.90;83.70
19847;DHT22;10084;50.518;8.588;2023-11-18T04:31:24;3.00;83.90
19847;DHT22;10084;50.518;8.588;2023-11-18T04:33:50;3.00;83.90
19847;DHT22;10084;50.518;8.588;2023-11-18T04:36:16;3.00;83.80
19847;DHT22;10084;50.518;8.588;2023-11-18T04:38:42;3.10;83.80
19847;DHT22;10084;50.518;8.588;2023-11-18T04:41:09;3.10;83.80
19847;DHT22;10084;50.518;8.588;2023-11-18T04:43:36;3.20;83.80
19847;DHT22;10084;50.518;8.588;2023-11-18T04:46:02;3.20;83.80
19847;DHT22;10084;50.518;8.588;2023-11-18T04:48:27;3.20;83.80
19847;DHT22;10084;50.518;8.588;2023-11-18T04:50:54;3.30;83.90
19847;DHT22;10084;50.518;8.588;2023-11-18T04:53:19;3.30;83.90
19847;DHT22;10084;50.518;8.588;2023-11-18T04:55:45;3.30;83.80
19847;DHT22;10084;50.518;8.588;2023-11-18T04:58:11;3.40;83.90
19847;DHT22;10084;50.518;8.588;2023-11-18T05:00:36;3.40;83.90
19847;DHT22;10084;50.518;8.588;2023-11-18T05:03:07;3.40;83.90
19847;DHT22;10084;50.518;8.588;2023-11-18T05:05:37;3.40;83.90
19847;DHT22;10084;50.518;8.588;2023-11-18T05:08:04;3.50;83.90
19847;DHT22;10084;50.518;8.588;2023-11-18T05:10:33;3.50;83.80
19847;DHT22;10084;50.518;8.588;2023-11-18T05:12:59;3.50;83.90
19847;DHT22;10084;50.518;8.588;2023-11-18T05:15:25;3.50;83.90
19847;DHT22;10084;50.518;8.588;2023-11-18T05:17:54;3.50;83.90
19847;DHT22;10084;50.518;8.588;2023-11-18T05:20:21;3.50;84.00
19847;DHT22;10084;50.518;8.588;2023-11-18T05:22:47;3.50;84.00
19847;DHT22;10084;50.518;8.588;2023-11-18T05:25:13;3.60;84.00
19847;DHT22;10084;50.518;8.588;2023-11-18T05:27:39;3.50;83.70
19847;DHT22;10084;50.518;8.588;2023-11-18T05:30:10;3.50;83.70
19847;DHT22;10084;50.518;8.588;2023-11-18T05:32:36;3.50;83.70
19847;DHT22;10084;50.518;8.588;2023-11-18T05:35:03;3.50;83.80
19847;DHT22;10084;50.518;8.588;2023-11-18T05:37:30;3.50;83.80
19847;DHT22;10084;50.518;8.588;2023-11-18T05:40:04;3.50;83.80
19847;DHT22;10084;50.518;8.588;2023-11-18T05:42:37;3.50;83.80
19847;DHT22;10084;50.518;8.588;2023-11-18T05:45:04;3.40;83.50
19847;DHT22;10084;50.518;8.588;2023-11-18T05:47:30;3.40;83.20
19847;DHT22;10084;50.518;8.588;2023-11-18T05:49:56;3.30;83.00
19847;DHT22;10084;50.518;8.588;2023-11-18T05:52:22;3.20;83.10
19847;DHT22;10084;50.518;8.588;2023-11-18T05:54:48;3.20;83.30
19847;DHT22;10084;50.518;8.588;2023-11-18T05:57:17;3.10;83.20
19847;DHT22;10084;50.518;8.588;2023-11-18T05:59:43;3.00;83.30
19847;DHT22;10084;50.518;8.588;2023-11-18T06:02:09;3.00;83.50
19847;DHT22;10084;50.518;8.588;2023-11-18T06:04:43;2.90;83.50
19847;DHT22;10084;50.518;8.588;2023-11-18T06:07:09;2.90;83.60
19847;DHT22;10084;50.518;8.588;2023-11-18T06:09:34;2.90;83.80
19847;DHT22;10084;50.518;8.588;2023-11-18T06:12:00;2.90;83.90
19847;DHT22;10084;50.518;8.588;2023-11-18T06:14:26;2.90;84.00
19847;DHT22;10084;50.518;8.588;2023-11-18T06:16:52;2.90;84.00
19847;DHT22;10084;50.518;8.588;2023-11-18T06:19:17;2.90;84.10
19847;DHT22;10084;50.518;8.588;2023-11-18T06:21:44;3.00;84.20
19847;DHT22;10084;50.518;8.588;2023-11-18T06:24:09;3.00;84.20
19847;DHT22;10084;50.518;8.588;2023-11-18T06:26:37;3.00;84.10
19847;DHT22;10084;50.518;8.588;2023-11-18T06:29:03;3.00;84.10
19847;DHT22;10084;50.518;8.588;2023-11-18T06:31:29;3.00;84.20
19847;DHT22;10084;50.518;8.588;2023-11-18T06:33:55;3.10;84.30
19847;DHT22;10084;50.518;8.588;2023-11-18T06:36:21;3.10;84.20
19847;DHT22;10084;50.518;8.588;2023-11-18T06:38:52;3.10;84.10
19847;DHT22;10084;50.518;8.588;2023-11-18T06:41:23;3.10;84.30
19847;DHT22;10084;50.518;8.588;2023-11-18T06:43:49;3.10;84.30
19847;DHT22;10084;50.518;8.588;2023-11-18T06:46:24;3.20;84.50
19847;DHT22;10084;50.518;8.588;2023-11-18T06:48:54;3.20;84.40
19847;DHT22;10084;50.518;8.588;2023-11-18T06:51:21;3.20;84.50
19847;DHT22;10084;50.518;8.588;2023-11-18T06:53:59;3.30;84.40
19847;DHT22;10084;50.518;8.588;2023-11-18T06:56:26;3.30;84.50
19847;DHT22;10084;50.518;8.588;2023-11-18T06:58:53;3.30;84.60
19847;DHT22;10084;50.518;8.588;2023-11-18T07:01:19;3.40;84.60
19847;DHT22;10084;50.518;8.588;2023-11-18T07:03:46;3.40;84.70
19847;DHT22;10084;50.518;8.588;2023-11-18T07:06:17;3.50;84.80
19847;DHT22;10084;50.518;8.588;2023-11-18T07:08:51;3.50;84.80
19847;DHT22;10084;50.518;8.588;2023-11-18T07:11:18;3.50;84.90
19847;DHT22;10084;50.518;8.588;2023-11-18T07:13:46;3.60;85.00
19847;DHT22;10084;50.518;8.588;2023-11-18T07:16:11;3.60;84.70
19847;DHT22;10084;50.518;8.588;2023-11-18T07:18:41;3.70;84.70
19847;DHT22;10084;50.518;8.588;2023-11-18T07:21:09;3.70;84.80
19847;DHT22;10084;50.518;8.588;2023-11-18T07:23:36;3.70;84.70
19847;DHT22;10084;50.518;8.588;2023-11-18T07:26:02;3.80;84.90
19847;DHT22;10084;50.518;8.588;2023-11-18T07:28:29;3.80;85.00
19847;DHT22;10084;50.518;8.588;2023-11-18T07:30:55;3.80;85.00
19847;DHT22;10084;50.518;8.588;2023-11-18T07:33:21;3.90;85.10
19847;DHT22;10084;50.518;8.588;2023-11-18T07:35:47;3.90;85.10
19847;DHT22;10084;50.518;8.588;2023-11-18T07:38:14;4.00;85.20
19847;DHT22;10084;50.518;8.588;2023-11-18T07:40:40;4.00;85.20
19847;DHT22;10084;50.518;8.588;2023-11-18T07:43:17;4.10;85.20
19847;DHT22;10084;50.518;8.588;2023-11-18T07:45:42;4.10;85.10
19847;DHT22;10084;50.518;8.588;2023-11-18T07:48:10;4.20;85.10
19847;DHT22;10084;50.518;8.588;2023-11-18T07:50:38;4.20;84.80
19847;DHT22;10084;50.518;8.588;2023-11-18T07:53:04;4.20;84.60
19847;DHT22;10084;50.518;8.588;2023-11-18T07:55:32;4.20;84.70
19847;DHT22;10084;50.518;8.588;2023-11-18T07:58:03;4.10;84.60
19847;DHT22;10084;50.518;8.588;2023-11-18T08:00:43;4.10;84.70
19847;DHT22;10084;50.518;8.588;2023-11-18T08:03:10;4.10;84.70
19847;DHT22;10084;50.518;8.588;2023-11-18T08:05:41;4.10;84.60
19847;DHT22;10084;50.518;8.588;2023-11-18T08:08:09;4.00;84.30
19847;DHT22;10084;50.518;8.588;2023-11-18T08:10:37;3.90;84.30
19847;DHT22;10084;50.518;8.588;2023-11-18T08:13:06;3.90;85.20
19847;DHT22;10084;50.518;8.588;2023-11-18T08:15:39;3.90;84.80
19847;DHT22;10084;50.518;8.588;2023-11-18T08:18:06;3.90;84.90
19847;DHT22;10084;50.518;8.588;2023-11-18T08:20:32;3.80;84.90
19847;DHT22;10084;50.518;8.588;2023-11-18T08:22:58;3.80;85.00
19847;DHT22;10084;50.518;8.588;2023-11-18T08:25:25;3.80;85.10
19847;DHT22;10084;50.518;8.588;2023-11-18T08:27:51;3.80;85.30
19847;DHT22;10084;50.518;8.588;2023-11-18T08:30:17;3.90;85.60
19847;DHT22;10084;50.518;8.588;2023-11-18T08:32:45;3.90;85.70
19847;DHT22;10084;50.518;8.588;2023-11-18T08:35:14;3.90;85.70
19847;DHT22;10084;50.518;8.588;2023-11-18T08:37:41;4.00;85.90
19847;DHT22;10084;50.518;8.588;2023-11-18T08:40:08;4.00;85.80
19847;DHT22;10084;50.518;8.588;2023-11-18T08:42:44;4.10;85.80
19847;DHT22;10084;50.518;8.588;2023-11-18T08:45:18;4.10;85.70
19847;DHT22;10084;50.518;8.588;2023-11-18T08:47:45;4.20;85.70
19847;DHT22;10084;50.518;8.588;2023-11-18T08:50:16;4.20;85.90
19847;DHT22;10084;50.518;8.588;2023-11-18T08:52:46;4.20;85.80
19847;DHT22;10084;50.518;8.588;2023-11-18T08:55:15;4.30;85.90
19847;DHT22;10084;50.518;8.588;2023-11-18T08:57:46;4.30;86.00
19847;DHT22;10084;50.518;8.588;2023-11-18T09:00:27;4.40;86.30
19847;DHT22;10084;50.518;8.588;2023-11-18T09:03:17;4.50;86.40
19847;DHT22;10084;50.518;8.588;2023-11-18T09:05:54;4.60;86.50
19847;DHT22;10084;50.518;8.588;2023-11-18T09:08:27;4.70;86.60
19847;DHT22;10084;50.518;8.588;2023-11-18T09:10:55;4.80;86.60
19847;DHT22;10084;50.518;8.588;2023-11-18T09:13:25;5.00;86.40
19847;DHT22;10084;50.518;8.588;2023-11-18T09:15:58;5.00;86.40
19847;DHT22;10084;50.518;8.588;2023-11-18T09:18:26;5.10;86.40
19847;DHT22;10084;50.518;8.588;2023-11-18T09:20:53;5.10;85.60
19847;DHT22;10084;50.518;8.588;2023-11-18T09:23:23;5.10;85.40
19847;DHT22;10084;50.518;8.588;2023-11-18T09:25:54;5.10;85.40
19847;DHT22;10084;50.518;8.588;2023-11-18T09:28:21;5.10;85.50
19847;DHT22;10084;50.518;8.588;2023-11-18T09:30:48;5.10;85.70
19847;DHT22;10084;50.518;8.588;2023-11-18T09:33:23;5.10;85.70
19847;DHT22;10084;50.518;8.588;2023-11-18T09:36:06;5.10;85.30
19847;DHT22;10084;50.518;8.588;2023-11-18T09:38:34;5.00;85.10
19847;DHT22;10084;50.518;8.588;2023-11-18T09:41:07;5.00;85.20
19847;DHT22;10084;50.518;8.588;2023-11-18T09:43:33;4.90;85.30
19847;DHT22;10084;50.518;8.588;2023-11-18T09:46:09;4.90;85.60
19847;DHT22;10084;50.518;8.588;2023-11-18T09:48:48;4.90;86.00
19847;DHT22;10084;50.518;8.588;2023-11-18T09:51:29;4.90;86.10
19847;DHT22;10084;50.518;8.588;2023-11-18T09:54:05;4.80;86.20
19847;DHT22;10084;50.518;8.588;2023-11-18T09:57:08;4.70;86.40
19847;DHT22;10084;50.518;8.588;2023-11-18T10:00:07;4.70;86.90
19847;DHT22;10084;50.518;8.588;2023-11-18T10:02:53;4.80;87.00
19847;DHT22;10084;50.518;8.588;2023-11-18T10:05:21;4.80;87.10
19847;DHT22;10084;50.518;8.588;2023-11-18T10:07:49;4.70;87.20
19847;DHT22;10084;50.518;8.588;2023-11-18T10:10:15;4.70;87.40
19847;DHT22;10084;50.518;8.588;2023-11-18T10:12:45;4.70;87.60
19847;DHT22;10084;50.518;8.588;2023-11-18T10:15:13;4.70;87.90
19847;DHT22;10084;50.518;8.588;2023-11-18T10:17:44;4.70;88.10
19847;DHT22;10084;50.518;8.588;2023-11-18T10:20:47;4.80;88.40
19847;DHT22;10084;50.518;8.588;2023-11-18T10:23:15;4.90;88.70
19847;DHT22;10084;50.518;8.588;2023-11-18T10:25:51;4.90;88.50
19847;DHT22;10084;50.518;8.588;2023-11-18T10:28:31;5.00;88.50
19847;DHT22;10084;50.518;8.588;2023-11-18T10:31:03;5.00;88.60
19847;DHT22;10084;50.518;8.588;2023-11-18T10:33:36;5.10;88.80
19847;DHT22;10084;50.518;8.588;2023-11-18T10:36:04;5.10;88.70
19847;DHT22;10084;50.518;8.588;2023-11-18T10:38:39;5.10;88.80
19847;DHT22;10084;50.518;8.588;2023-11-18T10:41:15;5.20;89.10
19847;DHT22;10084;50.518;8.588;2023-11-18T10:43:42;5.20;89.30
19847;DHT22;10084;50.518;8.588;2023-11-18T10:46:14;5.30;89.50
19847;DHT22;10084;50.518;8.588;2023-11-18T10:48:47;5.40;89.50
19847;DHT22;10084;50.518;8.588;2023-11-18T10:51:17;5.50;89.50
19847;DHT22;10084;50.518;8.588;2023-11-18T10:53:47;5.50;89.50
19847;DHT22;10084;50.518;8.588;2023-11-18T10:56:22;5.60;89.60
19847;DHT22;10084;50.518;8.588;2023-11-18T10:59:04;5.60;89.70
19847;DHT22;10084;50.518;8.588;2023-11-18T11:01:33;5.70;90.00
19847;DHT22;10084;50.518;8.588;2023-11-18T11:03:59;5.80;90.00
19847;DHT22;10084;50.518;8.588;2023-11-18T11:06:30;5.80;90.00
19847;DHT22;10084;50.518;8.588;2023-11-18T11:08:57;5.90;90.00
19847;DHT22;10084;50.518;8.588;2023-11-18T11:11:32;5.90;90.00
19847;DHT22;10084;50.518;8.588;2023-11-18T11:14:00;5.90;90.00
19847;DHT22;10084;50.518;8.588;2023-11-18T11:16:40;6.00;90.10
19847;DHT22;10084;50.518;8.588;2023-11-18T11:19:20;6.00;90.00
19847;DHT22;10084;50.518;8.588;2023-11-18T11:21:54;6.00;90.00
19847;DHT22;10084;50.518;8.588;2023-11-18T11:24:40;6.00;90.10
19847;DHT22;10084;50.518;8.588;2023-11-18T11:27:25;6.10;90.20
19847;DHT22;10084;50.518;8.588;2023-11-18T11:30:06;6.10;90.20
19847;DHT22;10084;50.518;8.588;2023-11-18T11:32:44;6.10;90.20
19847;DHT22;10084;50.518;8.588;2023-11-18T11:35:18;6.10;90.30
19847;DHT22;10084;50.518;8.588;2023-11-18T11:37:47;6.20;90.40
19847;DHT22;10084;50.518;8.588;2023-11-18T11:40:14;6.20;90.50
19847;DHT22;10084;50.518;8.588;2023-11-18T11:42:49;6.20;90.50
19847;DHT22;10084;50.518;8.588;2023-11-18T11:45:22;6.20;90.60
19847;DHT22;10084;50.518;8.588;2023-11-18T11:47:55;6.30;90.60
19847;DHT22;10084;50.518;8.588;2023-11-18T11:51:07;6.30;90.70
19847;DHT22;10084;50.518;8.588;2023-11-18T11:53:36;6.30;90.80
19847;DHT22;10084;50.518;8.588;2023-11-18T11:56:05;6.30;90.90
19847;DHT22;10084;50.518;8.588;2023-11-18T11:58:35;6.40;91.00
19847;DHT22;10084;50.518;8.588;2023-11-18T12:03:43;6.40;91.20
19847;DHT22;10084;50.518;8.588;2023-11-18T12:06:18;6.50;91.50
19847;DHT22;10084;50.518;8.588;2023-11-18T12:08:52;6.50;91.50
19847;DHT22;10084;50.518;8.588;2023-11-18T12:11:19;6.60;91.50
19847;DHT22;10084;50.518;8.588;2023-11-18T12:14:05;6.60;91.50
19847;DHT22;10084;50.518;8.588;2023-11-18T12:17:08;6.70;91.60
19847;DHT22;10084;50.518;8.588;2023-11-18T12:19:38;6.70;91.60
19847;DHT22;10084;50.518;8.588;2023-11-18T12:22:16;6.80;91.70
19847;DHT22;10084;50.518;8.588;2023-11-18T12:33:03;6.90;91.70
19847;DHT22;10084;50.518;8.588;2023-11-18T12:41:39;7.00;91.70
19847;DHT22;10084;50.518;8.588;2023-11-18T12:44:29;7.00;91.60
19847;DHT22;10084;50.518;8.588;2023-11-18T12:47:02;7.00;91.70
19847;DHT22;10084;50.518;8.588;2023-11-18T12:49:40;7.00;91.80
19847;DHT22;10084;50.518;8.588;2023-11-18T12:52:08;7.10;92.00
19847;DHT22;10084;50.518;8.588;2023-11-18T12:54:34;7.10;92.00
19847;DHT22;10084;50.518;8.588;2023-11-18T12:57:03;7.20;92.00
19847;DHT22;10084;50.518;8.588;2023-11-18T12:59:33;7.20;92.00
19847;DHT22;10084;50.518;8.588;2023-11-18T13:01:59;7.20;92.00
19847;DHT22;10084;50.518;8.588;2023-11-18T13:04:30;7.30;92.10
19847;DHT22;10084;50.518;8.588;2023-11-18T13:06:57;7.30;92.10
19847;DHT22;10084;50.518;8.588;2023-11-18T13:09:26;7.30;92.10
19847;DHT22;10084;50.518;8.588;2023-11-18T13:11:53;7.40;92.20
19847;DHT22;10084;50.518;8.588;2023-11-18T13:14:25;7.40;92.20
19847;DHT22;10084;50.518;8.588;2023-11-18T13:16:54;7.40;92.10
19847;DHT22;10084;50.518;8.588;2023-11-18T13:19:28;7.50;91.90
19847;DHT22;10084;50.518;8.588;2023-11-18T13:22:01;7.50;91.90
19847;DHT22;10084;50.518;8.588;2023-11-18T13:24:32;7.50;91.90
19847;DHT22;10084;50.518;8.588;2023-11-18T13:27:00;7.50;91.80
19847;DHT22;10084;50.518;8.588;2023-11-18T13:29:36;7.50;91.80
19847;DHT22;10084;50.518;8.588;2023-11-18T13:32:02;7.40;91.90
19847;DHT22;10084;50.518;8.588;2023-11-18T13:34:30;7.50;92.10
19847;DHT22;10084;50.518;8.588;2023-11-18T13:36:58;7.50;92.30
19847;DHT22;10084;50.518;8.588;2023-11-18T13:39:25;7.50;92.40
19847;DHT22;10084;50.518;8.588;2023-11-18T13:41:53;7.50;92.30
19847;DHT22;10084;50.518;8.588;2023-11-18T13:44:37;7.60;92.30
19847;DHT22;10084;50.518;8.588;2023-11-18T13:47:10;7.60;92.30
19847;DHT22;10084;50.518;8.588;2023-11-18T13:49:38;7.60;92.20
19847;DHT22;10084;50.518;8.588;2023-11-18T13:52:07;7.60;92.10
19847;DHT22;10084;50.518;8.588;2023-11-18T13:54:35;7.60;92.10
19847;DHT22;10084;50.518;8.588;2023-11-18T13:57:02;7.60;92.10
19847;DHT22;10084;50.518;8.588;2023-11-18T13:59:29;7.50;92.10
19847;DHT22;10084;50.518;8.588;2023-11-18T14:01:55;7.50;92.10
19847;DHT22;10084;50.518;8.588;2023-11-18T14:04:27;7.50;92.20
19847;DHT22;10084;50.518;8.588;2023-11-18T14:06:56;7.50;92.10
19847;DHT22;10084;50.518;8.588;2023-11-18T14:09:22;7.50;92.10
19847;DHT22;10084;50.518;8.588;2023-11-18T14:11:51;7.50;92.20
19847;DHT22;10084;50.518;8.588;2023-11-18T14:14:17;7.40;92.20
19847;DHT22;10084;50.518;8.588;2023-11-18T14:16:43;7.40;92.30
19847;DHT22;10084;50.518;8.588;2023-11-18T14:19:09;7.40;92.30
19847;DHT22;10084;50.518;8.588;2023-11-18T14:21:36;7.30;92.30
19847;DHT22;10084;50.518;8.588;2023-11-18T14:24:03;7.20;92.50
19847;DHT22;10084;50.518;8.588;2023-11-18T14:26:29;7.20;92.60
19847;DHT22;10084;50.518;8.588;2023-11-18T14:28:57;7.20;92.80
19847;DHT22;10084;50.518;8.588;2023-11-18T14:31:24;7.10;92.80
19847;DHT22;10084;50.518;8.588;2023-11-18T14:33:51;7.10;93.00
19847;DHT22;10084;50.518;8.588;2023-11-18T14:36:17;7.10;93.10
19847;DHT22;10084;50.518;8.588;2023-11-18T14:38:44;7.10;93.20
19847;DHT22;10084;50.518;8.588;2023-11-18T14:41:10;7.00;93.30
19847;DHT22;10084;50.518;8.588;2023-11-18T14:43:36;7.10;93.40
19847;DHT22;10084;50.518;8.588;2023-11-18T14:46:02;7.00;93.40
19847;DHT22;10084;50.518;8.588;2023-11-18T14:48:29;7.00;93.50
19847;DHT22;10084;50.518;8.588;2023-11-18T14:50:55;7.00;93.60
19847;DHT22;10084;50.518;8.588;2023-11-18T14:53:22;7.00;93.80
19847;DHT22;10084;50.518;8.588;2023-11-18T14:55:48;7.00;93.90
19847;DHT22;10084;50.518;8.588;2023-11-18T14:58:14;6.90;94.00
19847;DHT22;10084;50.518;8.588;2023-11-18T15:00:40;7.00;94.30
19847;DHT22;10084;50.518;8.588;2023-11-18T15:03:08;6.90;94.40
19847;DHT22;10084;50.518;8.588;2023-11-18T15:05:33;6.90;94.60
19847;DHT22;10084;50.518;8.588;2023-11-18T15:08:00;6.90;94.70
19847;DHT22;10084;50.518;8.588;2023-11-18T15:10:27;6.90;94.90
19847;DHT22;10084;50.518;8.588;2023-11-18T15:12:58;6.90;95.00
19847;DHT22;10084;50.518;8.588;2023-11-18T15:15:28;7.00;95.10
19847;DHT22;10084;50.518;8.588;2023-11-18T15:18:06;7.00;95.20
19847;DHT22;10084;50.518;8.588;2023-11-18T15:20:34;7.00;95.30
19847;DHT22;10084;50.518;8.588;2023-11-18T15:23:01;7.00;95.30
19847;DHT22;10084;50.518;8.588;2023-11-18T15:25:27;7.00;95.30
19847;DHT22;10084;50.518;8.588;2023-11-18T15:27:53;7.10;95.40
19847;DHT22;10084;50.518;8.588;2023-11-18T15:30:19;7.10;95.40
19847;DHT22;10084;50.518;8.588;2023-11-18T15:32:45;7.20;95.50
19847;DHT22;10084;50.518;8.588;2023-11-18T15:35:14;7.20;95.50
19847;DHT22;10084;50.518;8.588;2023-11-18T15:37:43;7.20;95.50
19847;DHT22;10084;50.518;8.588;2023-11-18T15:40:12;7.20;95.50
19847;DHT22;10084;50.518;8.588;2023-11-18T15:42:43;7.30;95.40
19847;DHT22;10084;50.518;8.588;2023-11-18T15:45:13;7.30;95.30
19847;DHT22;10084;50.518;8.588;2023-11-18T15:47:41;7.30;95.20
19847;DHT22;10084;50.518;8.588;2023-11-18T15:50:09;7.30;95.20
19847;DHT22;10084;50.518;8.588;2023-11-18T15:52:44;7.30;95.20
19847;DHT22;10084;50.518;8.588;2023-11-18T15:55:11;7.30;95.20
19847;DHT22;10084;50.518;8.588;2023-11-18T15:57:48;7.30;95.30
19847;DHT22;10084;50.518;8.588;2023-11-18T16:00:18;7.30;95.30
19847;DHT22;10084;50.518;8.588;2023-11-18T16:02:50;7.30;95.40
19847;DHT22;10084;50.518;8.588;2023-11-18T16:05:17;7.30;95.40
19847;DHT22;10084;50.518;8.588;2023-11-18T16:07:50;7.40;95.50
19847;DHT22;10084;50.518;8.588;2023-11-18T16:10:17;7.30;95.40
19847;DHT22;10084;50.518;8.588;2023-11-18T16:12:45;7.40;95.50
19847;DHT22;10084;50.518;8.588;2023-11-18T16:15:16;7.40;95.60
19847;DHT22;10084;50.518;8.588;2023-11-18T16:17:42;7.40;95.50